This is the latest recevied weather packets stored in our database for station/object DG9LAO-6. If no packets are shown the sender has not sent any weather packets the latest 10 day(s).
| Time | Temp. | Humidity | Pressure | Rain* | Wind** | Luminosity | Snow |
|---|---|---|---|---|---|---|---|
| 1778223551 | 12.22° C | 79% | 1020.2 hPa | 0 mm | - | - | - |
| 1778221750 | 11.11° C | 84% | 1020.2 hPa | 0 mm | - | - | - |
| 1778214549 | 4.44° C | 89% | 1019 hPa | 0 mm | - | - | - |
| 1778209148 | 16.11° C | 63% | 1018.9 hPa | 0 mm | - | - | - |
| 1778207948 | 16.11° C | 63% | 1018.8 hPa | 0 mm | - | - | - |
| 1778205548 | 16.11° C | 63% | 1018.8 hPa | 0 mm | - | - | - |
| 1778201951 | 16.11° C | 63% | 1018.6 hPa | 0 mm | - | - | - |
| 1778196550 | 16.11° C | 63% | 1018.7 hPa | 0 mm | - | - | - |
| 1778188149 | 16.11° C | 63% | 1015.8 hPa | 0 mm | - | - | - |
| 1778185754 | 9.44° C | 74% | 1020.2 hPa | 0 mm | - | - | - |
| 1778180954 | 11.67° C | 68% | 1019.3 hPa | 0 mm | - | - | - |
| 1778179153 | 12.22° C | 65% | 1019.2 hPa | 0 mm | - | - | - |
| 1778170152 | 16.11° C | 63% | 1016.4 hPa | 0 mm | - | - | - |
| 1778156350 | 16.11° C | 63% | 1017.8 hPa | 0 mm | - | - | - |
| 1778148553 | 15.56° C | 69% | 1017.7 hPa | 0 mm | - | - | - |
| 1778148549 | 15° C | 68% | 1019.9 hPa | 0 mm | - | - | - |
| 1778140151 | 12.78° C | 83% | 1015.1 hPa | 0 mm | - | - | - |
| 1778132951 | 8.89° C | 92% | 1015.9 hPa | 0 mm | - | - | - |
| 1778129349 | 6.67° C | 92% | 1013.1 hPa | 0 mm | - | - | - |
| 1778128149 | 5° C | 91% | 1012.8 hPa | 0 mm | - | - | - |
| 1778125749 | 5.56° C | 91% | 1012.4 hPa | 0 mm | - | - | - |
| 1778119151 | 6.11° C | 90% | 1012.1 hPa | 0 mm | - | - | - |
| 1778118551 | 6.67° C | 90% | 1012.1 hPa | 0 mm | - | - | - |
| 1778111350 | 7.22° C | 89% | 1011.7 hPa | 0 mm | - | - | - |
| 1778102951 | 9.44° C | 84% | 1011.1 hPa | 0 mm | - | - | - |
* Rain latest hour (hover to see other rain measurements)
** Current wind speed in m/s (hover to see current wind gust speed)